Kezdőlap
METAR-TAF:

METAR-TAF

Repülőterek :

Los Ángeles, Chile

földrajzi szélesség: 37-24-07S, földrajzi hosszúság: 072-25-32W, magasság: 114 m

Jelenlegi meteorológiai megfigyelések

A jelentés 42 perccel ezelõtt készült, 15:00 UTC
Észak-északnyugati szél 3 kt
Hőmérséklet 10°C
Páratartalom 100%
Légköri nyomás 1016 hPa
Látótávolság: 3000 m
Szakadozott felhőzet 1000 lábon
Borult 3000 lábon
esõ

METAR: SCGE 261500Z 34003KT 3000 RA BKN010 OVC030 10/10 Q1016

Idő: 11:42 (15:42 UTC)


TAF: hiányzik

Meteorológiai megfigyelések és előrejelzések több, mint 4000 repülőtéren (METAR és TAF jelentéseket).

A térképen piros és sárga pontok jelzik az elérhető meteorológiai állomásokat.

Mozgassa az egeret a pont fölött, hogy megjelenjen az állomás neve.

Azután kattintson az időjárási megfigyelések és előrejelzések megtekintéséhez.

A térkép megváltoztatása: kattintson a fekete keresztel jelölt zöld gombra ráközelítéshez, a vonallal jelölt zöld gombra távolításhoz, vagy a zöld nyilakra a szomszédos térképek eléréséhez.


METAR-TAF: